Time;durP1;ratioP1;P1;durP2;ratioP2;P2;SDS_P1;SDS_P2;PMS_P1;PMS_P2;Temp;Humidity;BMP_temperature;BMP_pressure;BME280_temperature;BME280_humidity;BME280_pressure;Samples;Min_cycle;Max_cycle;Signal;HPM_P1;HPM_P2
2022/04/10 00:01:32;;;;;;;4.07;1.70;;;;;;;;;;5035863;28;20022;-83
2022/04/10 00:03:58;;;;;;;3.47;1.65;;;;;;;;;;5021693;28;20033;-83
2022/04/10 00:06:25;;;;;;;3.70;1.70;;;;;;;;;;5018569;28;20037;-82
2022/04/10 00:08:51;;;;;;;3.85;1.65;;;;;;;;;;5018780;28;20034;-82
2022/04/10 00:11:17;;;;;;;4.28;1.70;;;;;;;;;;5045700;28;20026;-82
2022/04/10 00:13:43;;;;;;;5.78;1.90;;;;;;;;;;5033325;28;20026;-82
2022/04/10 00:16:10;;;;;;;4.35;1.83;;;;;;;;;;5030126;28;20085;-80
2022/04/10 00:18:39;;;;;;;4.47;1.75;;;;;;;;;;5029814;28;20034;-80
2022/04/10 00:21:06;;;;;;;4.30;1.70;;;;;;;;;;5044778;28;20487;-82
2022/04/10 00:23:32;;;;;;;3.33;1.58;;;;;;;;;;5050896;28;20033;-83
2022/04/10 00:25:58;;;;;;;4.57;1.88;;;;;;;;;;5044476;28;20419;-82
2022/04/10 00:28:24;;;;;;;5.47;1.83;;;;;;;;;;5036472;28;20061;-84
2022/04/10 00:30:50;;;;;;;4.60;1.55;;;;;;;;;;5040709;28;20025;-81
2022/04/10 00:33:16;;;;;;;5.80;1.73;;;;;;;;;;5036470;28;20033;-83
2022/04/10 00:35:42;;;;;;;5.50;1.90;;;;;;;;;;5036688;28;20468;-83
2022/04/10 00:38:08;;;;;;;3.97;1.70;;;;;;;;;;5035550;28;20384;-82
2022/04/10 00:40:35;;;;;;;4.47;1.50;;;;;;;;;;5035869;28;20086;-82
2022/04/10 00:43:01;;;;;;;4.65;1.65;;;;;;;;;;5047848;28;20494;-82
2022/04/10 00:45:27;;;;;;;4.18;1.65;;;;;;;;;;5057503;28;20398;-82
2022/04/10 00:47:53;;;;;;;3.70;1.60;;;;;;;;;;5058166;28;20033;-83
2022/04/10 00:50:20;;;;;;;3.90;1.63;;;;;;;;;;5052684;28;20387;-82
2022/04/10 00:52:47;;;;;;;4.38;1.60;;;;;;;;;;5048336;28;20036;-83
2022/04/10 00:55:13;;;;;;;5.03;1.67;;;;;;;;;;5018067;28;20033;-83
2022/04/10 00:57:39;;;;;;;3.63;1.67;;;;;;;;;;5018023;28;20038;-83
2022/04/10 01:00:08;;;;;;;4.50;1.67;;;;;;;;;;5017974;28;20097;-82
2022/04/10 01:02:34;;;;;;;3.85;1.90;;;;;;;;;;5051123;28;20567;-82
2022/04/10 01:05:00;;;;;;;5.18;1.75;;;;;;;;;;5036634;28;20450;-82
2022/04/10 01:07:28;;;;;;;4.53;2.08;;;;;;;;;;5036400;28;20049;-83
2022/04/10 01:09:55;;;;;;;4.82;2.50;;;;;;;;;;5035621;28;20053;-81
2022/04/10 01:12:21;;;;;;;6.93;3.25;;;;;;;;;;5044765;28;20097;-82
2022/04/10 01:14:47;;;;;;;6.97;2.97;;;;;;;;;;5046719;28;20033;-83
2022/04/10 01:17:14;;;;;;;6.07;2.72;;;;;;;;;;5037071;28;20095;-81
2022/04/10 01:19:41;;;;;;;7.75;3.40;;;;;;;;;;5022355;28;20030;-83
2022/04/10 01:22:07;;;;;;;6.88;3.47;;;;;;;;;;5043198;28;20114;-82
2022/04/10 01:24:34;;;;;;;5.30;2.88;;;;;;;;;;5047222;28;20040;-83
2022/04/10 01:27:02;;;;;;;7.65;3.42;;;;;;;;;;5055678;28;20033;-83
2022/04/10 01:29:28;;;;;;;6.63;3.05;;;;;;;;;;5056783;28;20028;-82
2022/04/10 01:31:55;;;;;;;5.88;3.00;;;;;;;;;;5040412;28;20491;-83
2022/04/10 01:34:21;;;;;;;5.70;2.80;;;;;;;;;;5045677;28;20025;-82
2022/04/10 01:36:47;;;;;;;7.15;3.47;;;;;;;;;;5056729;28;20028;-83
2022/04/10 01:39:15;;;;;;;8.00;3.33;;;;;;;;;;5035128;28;20141;-83
2022/04/10 01:41:41;;;;;;;5.93;2.97;;;;;;;;;;5036557;28;20030;-82
2022/04/10 01:44:08;;;;;;;6.70;3.00;;;;;;;;;;5035040;28;20029;-82
2022/04/10 01:46:34;;;;;;;5.93;3.45;;;;;;;;;;5039291;28;20051;-83
2022/04/10 01:49:01;;;;;;;5.18;2.70;;;;;;;;;;5035826;28;20033;-82
2022/04/10 01:51:27;;;;;;;7.22;3.40;;;;;;;;;;5046615;28;20106;-82
2022/04/10 01:53:54;;;;;;;6.13;3.45;;;;;;;;;;5025821;28;20112;-82
2022/04/10 01:56:20;;;;;;;8.45;3.42;;;;;;;;;;5029220;28;20117;-82
2022/04/10 01:58:47;;;;;;;7.32;3.70;;;;;;;;;;5023408;28;20033;-82
2022/04/10 02:01:14;;;;;;;6.05;3.30;;;;;;;;;;5051958;28;20041;-82
2022/04/10 02:03:40;;;;;;;8.25;3.22;;;;;;;;;;5052192;28;20033;-83
2022/04/10 02:06:07;;;;;;;6.45;3.35;;;;;;;;;;5033761;28;20056;-82
2022/04/10 02:08:35;;;;;;;5.75;3.20;;;;;;;;;;5044267;28;20040;-82
2022/04/10 02:11:01;;;;;;;6.93;3.60;;;;;;;;;;5032361;28;20132;-82
2022/04/10 02:13:28;;;;;;;5.68;2.92;;;;;;;;;;5034646;28;20079;-83
2022/04/10 02:15:54;;;;;;;5.43;3.05;;;;;;;;;;5048502;28;20112;-82
2022/04/10 02:18:20;;;;;;;6.93;2.88;;;;;;;;;;5053900;28;20418;-83
2022/04/10 02:20:46;;;;;;;5.72;3.35;;;;;;;;;;5039837;28;20071;-81
2022/04/10 02:23:15;;;;;;;8.07;3.45;;;;;;;;;;5055099;28;20029;-82
2022/04/10 02:25:41;;;;;;;6.28;3.22;;;;;;;;;;5040709;28;20044;-83
2022/04/10 02:28:07;;;;;;;5.45;3.30;;;;;;;;;;5050998;28;20399;-81
2022/04/10 02:30:33;;;;;;;5.90;3.38;;;;;;;;;;5055296;28;20026;-82
2022/04/10 02:32:59;;;;;;;6.47;3.15;;;;;;;;;;5045706;28;20113;-82
2022/04/10 02:35:25;;;;;;;5.57;3.30;;;;;;;;;;5033230;28;20064;-83
2022/04/10 02:37:51;;;;;;;5.68;3.08;;;;;;;;;;5053462;28;20017;-83
2022/04/10 02:40:18;;;;;;;6.22;3.53;;;;;;;;;;5041544;28;20417;-81
2022/04/10 02:42:44;;;;;;;6.20;2.85;;;;;;;;;;5047622;28;20082;-82
2022/04/10 02:45:10;;;;;;;5.43;3.25;;;;;;;;;;5047766;28;20025;-81
2022/04/10 02:47:36;;;;;;;6.85;3.63;;;;;;;;;;5033832;28;20480;-83
2022/04/10 02:50:03;;;;;;;6.50;3.40;;;;;;;;;;5049605;28;20103;-82
2022/04/10 02:52:29;;;;;;;6.28;3.33;;;;;;;;;;5041450;28;20109;-82
2022/04/10 02:54:55;;;;;;;5.70;2.95;;;;;;;;;;5048980;28;20029;-81
2022/04/10 02:57:21;;;;;;;5.30;3.10;;;;;;;;;;5041876;28;20085;-83
2022/04/10 02:59:47;;;;;;;6.32;3.40;;;;;;;;;;5028591;28;20025;-82
2022/04/10 03:02:13;;;;;;;6.20;3.22;;;;;;;;;;5043546;28;20052;-82
2022/04/10 03:04:39;;;;;;;5.10;2.80;;;;;;;;;;5047814;28;20494;-82
2022/04/10 03:07:05;;;;;;;6.95;3.40;;;;;;;;;;5052927;28;20037;-83
2022/04/10 03:09:31;;;;;;;6.20;3.35;;;;;;;;;;5052246;28;20021;-81
2022/04/10 03:11:57;;;;;;;6.32;3.35;;;;;;;;;;5045526;28;20481;-83
2022/04/10 03:14:23;;;;;;;7.03;3.10;;;;;;;;;;5039091;28;20487;-82
2022/04/10 03:16:49;;;;;;;6.10;3.42;;;;;;;;;;5050067;28;20040;-81
2022/04/10 03:19:17;;;;;;;6.78;3.35;;;;;;;;;;5054712;28;20025;-82
2022/04/10 03:21:43;;;;;;;6.28;3.45;;;;;;;;;;5046891;28;20067;-82
2022/04/10 03:24:09;;;;;;;6.45;3.10;;;;;;;;;;5045333;28;20087;-82
2022/04/10 03:26:35;;;;;;;6.60;3.25;;;;;;;;;;5043923;28;20535;-83
2022/04/10 03:29:01;;;;;;;6.45;3.05;;;;;;;;;;5034992;28;20033;-82
2022/04/10 03:31:27;;;;;;;7.57;3.38;;;;;;;;;;5051186;28;20387;-82
2022/04/10 03:33:53;;;;;;;6.20;3.38;;;;;;;;;;5056669;28;20021;-82
2022/04/10 03:36:19;;;;;;;7.43;3.25;;;;;;;;;;5056429;28;20055;-81
2022/04/10 03:38:45;;;;;;;6.32;3.28;;;;;;;;;;5058060;28;20021;-82
2022/04/10 03:41:11;;;;;;;6.05;3.55;;;;;;;;;;5040560;28;20056;-82
2022/04/10 03:43:37;;;;;;;5.85;3.25;;;;;;;;;;5045092;28;20029;-83
2022/04/10 03:46:03;;;;;;;5.78;3.25;;;;;;;;;;5034762;28;20435;-82
2022/04/10 03:48:29;;;;;;;5.63;3.38;;;;;;;;;;5035368;28;20029;-81
2022/04/10 03:50:55;;;;;;;8.10;3.75;;;;;;;;;;5030542;28;20025;-81
2022/04/10 03:53:21;;;;;;;6.97;4.63;;;;;;;;;;5019750;28;20065;-81
2022/04/10 03:55:47;;;;;;;7.72;4.25;;;;;;;;;;5017767;28;20029;-81
2022/04/10 03:58:14;;;;;;;7.63;4.63;;;;;;;;;;5028849;28;20041;-82
2022/04/10 04:00:40;;;;;;;7.50;4.43;;;;;;;;;;5022653;28;20112;-82
2022/04/10 04:03:06;;;;;;;11.35;4.97;;;;;;;;;;5018051;28;20044;-81
2022/04/10 04:05:32;;;;;;;8.13;4.90;;;;;;;;;;5016863;28;20061;-82
2022/04/10 04:07:58;;;;;;;8.45;5.10;;;;;;;;;;5018396;28;20046;-82
2022/04/10 04:10:24;;;;;;;7.85;5.10;;;;;;;;;;5041985;28;20031;-83
2022/04/10 04:12:50;;;;;;;8.52;5.32;;;;;;;;;;5056680;28;20017;-83
2022/04/10 04:15:16;;;;;;;7.93;5.40;;;;;;;;;;5037448;28;20100;-83
2022/04/10 04:17:42;;;;;;;8.48;5.60;;;;;;;;;;5024480;28;20022;-82
2022/04/10 04:20:09;;;;;;;9.25;6.00;;;;;;;;;;5024292;28;20551;-82
2022/04/10 04:22:35;;;;;;;8.90;5.20;;;;;;;;;;5029693;28;20030;-82
2022/04/10 04:25:06;;;;;;;11.20;6.25;;;;;;;;;;5042443;28;20033;-79
2022/04/10 04:27:32;;;;;;;9.77;5.43;;;;;;;;;;5057692;28;20101;-78
2022/04/10 04:29:58;;;;;;;8.93;6.47;;;;;;;;;;5039757;28;20029;-81
2022/04/10 04:32:24;;;;;;;12.13;6.38;;;;;;;;;;5037908;28;20037;-78
2022/04/10 04:34:50;;;;;;;12.32;7.00;;;;;;;;;;5042186;28;20040;-79
2022/04/10 04:37:16;;;;;;;11.75;6.47;;;;;;;;;;5044307;28;20026;-80
2022/04/10 04:39:42;;;;;;;11.30;6.95;;;;;;;;;;5028312;28;20029;-83
2022/04/10 04:42:08;;;;;;;9.27;6.60;;;;;;;;;;5036525;28;20033;-83
2022/04/10 04:44:34;;;;;;;10.73;6.38;;;;;;;;;;5023317;28;20026;-82
2022/04/10 04:47:00;;;;;;;10.50;6.28;;;;;;;;;;5028265;28;20498;-83
2022/04/10 04:49:26;;;;;;;11.00;6.03;;;;;;;;;;5044046;28;20112;-82
2022/04/10 04:51:53;;;;;;;8.55;5.82;;;;;;;;;;5057172;28;20028;-82
2022/04/10 04:54:19;;;;;;;10.60;5.65;;;;;;;;;;5058324;28;20117;-83
2022/04/10 04:56:45;;;;;;;10.00;6.13;;;;;;;;;;5052264;28;20117;-81
2022/04/10 04:59:14;;;;;;;11.93;6.00;;;;;;;;;;5047163;28;20040;-81
2022/04/10 05:01:41;;;;;;;11.93;6.22;;;;;;;;;;5057790;28;20045;-82
2022/04/10 05:04:07;;;;;;;9.23;4.78;;;;;;;;;;5037983;28;20029;-82
2022/04/10 05:06:33;;;;;;;6.75;4.18;;;;;;;;;;5069757;28;20036;-79
2022/04/10 05:08:59;;;;;;;7.30;4.30;;;;;;;;;;5067535;28;20029;-78
2022/04/10 05:11:25;;;;;;;9.88;4.45;;;;;;;;;;5057139;28;20033;-78
2022/04/10 05:13:51;;;;;;;8.05;4.68;;;;;;;;;;5078051;28;20047;-81
2022/04/10 05:16:18;;;;;;;7.18;4.22;;;;;;;;;;5049885;28;20030;-82
2022/04/10 05:18:44;;;;;;;7.38;3.97;;;;;;;;;;5028383;28;20040;-82
2022/04/10 05:21:10;;;;;;;6.43;3.78;;;;;;;;;;5025498;28;20029;-83
2022/04/10 05:23:36;;;;;;;6.50;3.53;;;;;;;;;;5035565;28;20530;-82
2022/04/10 05:26:02;;;;;;;6.07;3.45;;;;;;;;;;5035304;28;20017;-82
2022/04/10 05:28:30;;;;;;;9.18;4.40;;;;;;;;;;5050253;28;20068;-82
2022/04/10 05:30:56;;;;;;;7.32;3.88;;;;;;;;;;5043305;28;20087;-81
2022/04/10 05:33:22;;;;;;;6.75;3.90;;;;;;;;;;5045226;28;20475;-82
2022/04/10 05:35:48;;;;;;;6.25;3.42;;;;;;;;;;5034176;28;20025;-83
2022/04/10 05:38:14;;;;;;;7.70;3.65;;;;;;;;;;5037588;28;20098;-80
2022/04/10 05:40:40;;;;;;;6.05;3.30;;;;;;;;;;5031226;28;20038;-82
2022/04/10 05:43:06;;;;;;;5.80;3.38;;;;;;;;;;5035622;28;20459;-82
2022/04/10 05:45:32;;;;;;;6.70;3.28;;;;;;;;;;5034231;28;20025;-81
2022/04/10 05:47:58;;;;;;;5.55;2.63;;;;;;;;;;5035750;28;20120;-82
2022/04/10 05:53:28;;;;;;;5.68;3.30;;;;;;;;;;5027888;28;20029;-82
2022/04/10 05:55:54;;;;;;;7.88;2.92;;;;;;;;;;5023307;28;20026;-82
2022/04/10 05:58:23;;;;;;;6.78;2.80;;;;;;;;;;5034809;28;20037;-82
2022/04/10 06:00:49;;;;;;;5.65;2.97;;;;;;;;;;5032245;28;20022;-82
2022/04/10 06:03:15;;;;;;;5.15;2.92;;;;;;;;;;5035398;28;20075;-82
2022/04/10 06:05:41;;;;;;;4.63;2.30;;;;;;;;;;5038234;28;20071;-81
2022/04/10 06:08:07;;;;;;;6.53;3.75;;;;;;;;;;5048052;28;20500;-82
2022/04/10 06:10:33;;;;;;;5.80;2.78;;;;;;;;;;5033788;28;20055;-82
2022/04/10 06:13:09;;;;;;;5.82;3.17;;;;;;;;;;5035577;28;20025;-82
2022/04/10 06:15:35;;;;;;;5.22;2.45;;;;;;;;;;5026596;28;20030;-80
2022/04/10 06:18:01;;;;;;;4.78;2.80;;;;;;;;;;5036039;28;20057;-81
2022/04/10 06:20:27;;;;;;;5.80;2.80;;;;;;;;;;5038600;28;20079;-82
2022/04/10 06:22:53;;;;;;;4.88;2.72;;;;;;;;;;5040818;28;20017;-82
2022/04/10 06:25:19;;;;;;;5.82;2.70;;;;;;;;;;5035484;28;20583;-82
2022/04/10 06:27:45;;;;;;;5.00;2.42;;;;;;;;;;5046319;28;20045;-84
2022/04/10 06:30:12;;;;;;;5.00;2.85;;;;;;;;;;5032418;28;20115;-82
2022/04/10 06:32:37;;;;;;;7.00;2.90;;;;;;;;;;5034264;28;20056;-81
2022/04/10 06:35:04;;;;;;;5.88;2.75;;;;;;;;;;5016895;28;20072;-82
2022/04/10 06:37:30;;;;;;;5.78;2.55;;;;;;;;;;5035116;28;20410;-83
2022/04/10 06:39:56;;;;;;;5.22;2.70;;;;;;;;;;5031314;28;20026;-82
2022/04/10 06:42:22;;;;;;;7.65;2.42;;;;;;;;;;5033791;28;20025;-82
2022/04/10 06:44:48;;;;;;;6.00;2.38;;;;;;;;;;5042258;28;20128;-82
2022/04/10 06:47:14;;;;;;;4.80;2.20;;;;;;;;;;5045237;28;20030;-82
2022/04/10 06:49:40;;;;;;;4.53;2.45;;;;;;;;;;5038720;28;20048;-83
2022/04/10 06:52:06;;;;;;;9.90;2.20;;;;;;;;;;5033957;28;20403;-81
2022/04/10 06:54:32;;;;;;;6.07;2.35;;;;;;;;;;5041474;28;20040;-81
2022/04/10 06:56:58;;;;;;;5.18;2.35;;;;;;;;;;5054260;28;20021;-82
2022/04/10 06:59:24;;;;;;;4.80;2.20;;;;;;;;;;5035863;28;20073;-81
2022/04/10 07:01:50;;;;;;;5.78;2.67;;;;;;;;;;5043650;28;20137;-81
2022/04/10 07:04:16;;;;;;;4.97;2.53;;;;;;;;;;5033539;28;20057;-81
2022/04/10 07:06:46;;;;;;;6.25;2.60;;;;;;;;;;5042165;28;20041;-82
2022/04/10 07:09:13;;;;;;;4.78;2.35;;;;;;;;;;5039278;28;20432;-82
2022/04/10 07:11:39;;;;;;;6.88;2.15;;;;;;;;;;5038334;28;20022;-82
2022/04/10 07:14:05;;;;;;;4.43;2.00;;;;;;;;;;5038949;28;20168;-83
2022/04/10 07:16:31;;;;;;;4.53;2.10;;;;;;;;;;5034516;28;20017;-81
2022/04/10 07:18:57;;;;;;;4.47;2.00;;;;;;;;;;5033991;28;20123;-81
2022/04/10 07:24:08;;;;;;;4.45;2.15;;;;;;;;;;5044984;28;20043;-81
2022/04/10 07:26:34;;;;;;;4.93;2.15;;;;;;;;;;5043218;28;20083;-82
2022/04/10 07:29:00;;;;;;;4.85;1.90;;;;;;;;;;5018029;28;20065;-81
2022/04/10 07:31:26;;;;;;;5.15;2.17;;;;;;;;;;5027073;28;20075;-80
2022/04/10 07:33:52;;;;;;;4.55;2.15;;;;;;;;;;5033976;28;20032;-83
2022/04/10 07:36:18;;;;;;;4.80;2.03;;;;;;;;;;5039637;28;20017;-82
2022/04/10 07:38:45;;;;;;;5.07;1.90;;;;;;;;;;5034344;28;20619;-83
2022/04/10 07:41:11;;;;;;;4.30;2.03;;;;;;;;;;5035996;28;20112;-83
2022/04/10 07:43:37;;;;;;;4.20;2.00;;;;;;;;;;5033467;28;20056;-81
2022/04/10 07:48:48;;;;;;;4.50;2.10;;;;;;;;;;5020009;28;20527;-82
2022/04/10 07:51:14;;;;;;;6.13;2.20;;;;;;;;;;5035546;28;20033;-83
2022/04/10 07:53:40;;;;;;;4.20;1.95;;;;;;;;;;5041587;28;20297;-81
2022/04/10 07:56:06;;;;;;;5.00;1.75;;;;;;;;;;5053220;28;20089;-82
2022/04/10 07:58:32;;;;;;;5.05;1.83;;;;;;;;;;5037932;28;20037;-82
2022/04/10 08:00:58;;;;;;;4.32;1.67;;;;;;;;;;5047056;28;20021;-82
2022/04/10 08:03:24;;;;;;;4.32;1.63;;;;;;;;;;5042556;28;20368;-81
2022/04/10 08:05:51;;;;;;;6.38;1.90;;;;;;;;;;5044335;28;20018;-83
2022/04/10 08:08:17;;;;;;;3.10;1.50;;;;;;;;;;5026360;28;20141;-83
2022/04/10 08:10:43;;;;;;;3.90;1.60;;;;;;;;;;5037677;28;20053;-82
2022/04/10 08:13:09;;;;;;;4.45;2.28;;;;;;;;;;5038073;28;20614;-81
2022/04/10 08:15:35;;;;;;;4.88;2.33;;;;;;;;;;5041994;28;20029;-82
2022/04/10 08:18:01;;;;;;;4.32;1.70;;;;;;;;;;5027623;28;20029;-82
2022/04/10 08:20:27;;;;;;;4.20;1.70;;;;;;;;;;5030023;28;20025;-83
2022/04/10 08:22:53;;;;;;;4.30;1.70;;;;;;;;;;5049824;28;20017;-81
2022/04/10 08:25:23;;;;;;;4.03;1.30;;;;;;;;;;5028971;28;20043;-83
2022/04/10 08:27:50;;;;;;;4.35;1.98;;;;;;;;;;5037580;28;20452;-81
2022/04/10 08:30:16;;;;;;;4.65;1.75;;;;;;;;;;5047230;28;20517;-83
2022/04/10 08:32:43;;;;;;;5.15;1.77;;;;;;;;;;5036876;28;20065;-81
2022/04/10 08:35:10;;;;;;;5.78;2.22;;;;;;;;;;5043129;28;20021;-80
2022/04/10 08:37:36;;;;;;;4.15;1.63;;;;;;;;;;5045720;28;20572;-81
2022/04/10 08:40:03;;;;;;;4.88;2.28;;;;;;;;;;5032199;28;20080;-82
2022/04/10 08:42:29;;;;;;;7.32;1.73;;;;;;;;;;5037694;28;20096;-83
2022/04/10 08:44:55;;;;;;;4.00;1.90;;;;;;;;;;5039627;28;20043;-82
2022/04/10 08:47:21;;;;;;;4.38;2.08;;;;;;;;;;5048483;28;20537;-84
2022/04/10 08:49:48;;;;;;;4.55;1.70;;;;;;;;;;5041254;28;20033;-81
2022/04/10 08:52:18;;;;;;;4.80;1.92;;;;;;;;;;5043022;28;20064;-81
2022/04/10 08:54:45;;;;;;;5.03;1.70;;;;;;;;;;5043376;28;20025;-81
2022/04/10 08:57:11;;;;;;;3.83;1.80;;;;;;;;;;5045215;28;20105;-81
2022/04/10 08:59:37;;;;;;;3.97;1.70;;;;;;;;;;5037506;28;20034;-82
2022/04/10 09:02:04;;;;;;;4.07;1.70;;;;;;;;;;5051547;28;20032;-82
2022/04/10 09:04:31;;;;;;;4.60;1.90;;;;;;;;;;5056087;28;20025;-82
2022/04/10 09:07:02;;;;;;;4.65;1.83;;;;;;;;;;5047733;28;20057;-81
2022/04/10 09:09:28;;;;;;;4.38;1.67;;;;;;;;;;5038478;28;20028;-83
2022/04/10 09:11:55;;;;;;;5.50;2.22;;;;;;;;;;5035659;28;20116;-82
2022/04/10 09:14:25;;;;;;;4.47;2.25;;;;;;;;;;5036622;28;20454;-80
2022/04/10 09:17:11;;;;;;;4.47;1.90;;;;;;;;;;5043850;28;20025;-83
2022/04/10 09:19:38;;;;;;;5.00;2.13;;;;;;;;;;5037142;28;20399;-83
2022/04/10 09:22:23;;;;;;;5.05;1.98;;;;;;;;;;5037959;28;20056;-83
2022/04/10 09:25:07;;;;;;;4.82;1.88;;;;;;;;;;5054653;28;20025;-82
2022/04/10 09:27:34;;;;;;;6.57;2.33;;;;;;;;;;5049807;28;20056;-82
2022/04/10 09:30:01;;;;;;;4.38;1.80;;;;;;;;;;5036571;28;20125;-84
2022/04/10 09:32:40;;;;;;;4.28;2.22;;;;;;;;;;5050665;28;20040;-83
2022/04/10 09:35:07;;;;;;;4.47;2.00;;;;;;;;;;5049842;28;20030;-83
2022/04/10 09:37:41;;;;;;;5.28;2.22;;;;;;;;;;5040907;28;20025;-82
2022/04/10 09:40:39;;;;;;;4.65;2.28;;;;;;;;;;5048765;28;20041;-83
2022/04/10 09:43:07;;;;;;;5.40;2.55;;;;;;;;;;5054843;28;20129;-82
2022/04/10 09:45:40;;;;;;;4.50;2.13;;;;;;;;;;5058289;28;20041;-82
2022/04/10 09:48:35;;;;;;;4.40;2.47;;;;;;;;;;5048930;28;20032;-81
2022/04/10 09:51:02;;;;;;;6.70;2.70;;;;;;;;;;4969568;28;20073;-82
2022/04/10 09:53:28;;;;;;;4.93;2.20;;;;;;;;;;4978305;28;20117;-83
2022/04/10 09:55:55;;;;;;;6.82;2.33;;;;;;;;;;4995983;28;20524;-83
2022/04/10 09:58:22;;;;;;;4.70;2.40;;;;;;;;;;4983697;28;20033;-82
2022/04/10 10:00:49;;;;;;;7.57;2.40;;;;;;;;;;4960789;28;20038;-81
2022/04/10 10:03:17;;;;;;;4.80;2.45;;;;;;;;;;4977085;28;20047;-82
2022/04/10 10:05:43;;;;;;;4.85;2.45;;;;;;;;;;4995316;28;20049;-83
2022/04/10 10:08:09;;;;;;;6.50;2.78;;;;;;;;;;4991939;28;20110;-81
2022/04/10 10:10:36;;;;;;;5.32;2.83;;;;;;;;;;4979775;28;20039;-81
2022/04/10 10:13:05;;;;;;;6.05;2.90;;;;;;;;;;4977225;28;20038;-81
2022/04/10 10:15:32;;;;;;;6.55;3.33;;;;;;;;;;4973010;28;20038;-81
2022/04/10 10:17:58;;;;;;;6.60;3.78;;;;;;;;;;4964079;28;20039;-82
2022/04/10 10:20:24;;;;;;;9.38;5.43;;;;;;;;;;4975184;28;20039;-81
2022/04/10 10:22:51;;;;;;;8.48;4.70;;;;;;;;;;4975239;28;20027;-82
2022/04/10 10:25:27;;;;;;;5.97;3.40;;;;;;;;;;4991168;28;20485;-80
2022/04/10 10:28:12;;;;;;;7.53;4.18;;;;;;;;;;5030372;28;20033;-81
2022/04/10 10:30:45;;;;;;;8.95;4.97;;;;;;;;;;5034488;28;20025;-81
2022/04/10 10:33:21;;;;;;;8.63;4.72;;;;;;;;;;5035773;28;20396;-84
2022/04/10 10:35:50;;;;;;;5.47;3.03;;;;;;;;;;5016424;28;20026;-81
2022/04/10 10:38:26;;;;;;;5.50;4.00;;;;;;;;;;5036686;28;20032;-82
2022/04/10 10:40:54;;;;;;;5.75;3.28;;;;;;;;;;5034343;28;20034;-83
2022/04/10 10:43:24;;;;;;;5.57;3.55;;;;;;;;;;5035556;28;20026;-83
2022/04/10 10:45:52;;;;;;;6.82;3.67;;;;;;;;;;5017085;28;20125;-83
2022/04/10 10:48:47;;;;;;;6.50;3.50;;;;;;;;;;5026803;28;20057;-84
2022/04/10 10:51:15;;;;;;;5.40;2.97;;;;;;;;;;5030759;28;20492;-83
2022/04/10 10:53:47;;;;;;;5.50;3.25;;;;;;;;;;5020594;28;20025;-82
2022/04/10 10:56:20;;;;;;;8.35;3.20;;;;;;;;;;5055244;28;20442;-82
2022/04/10 10:58:50;;;;;;;6.43;3.00;;;;;;;;;;5041942;28;20036;-84
2022/04/10 11:01:20;;;;;;;5.07;2.97;;;;;;;;;;5035173;28;20029;-83
2022/04/10 11:04:05;;;;;;;5.68;3.05;;;;;;;;;;5034953;28;20029;-82
2022/04/10 11:06:33;;;;;;;6.50;3.20;;;;;;;;;;5034120;28;20091;-83
2022/04/10 11:09:18;;;;;;;5.32;3.33;;;;;;;;;;5036839;28;20029;-84
2022/04/10 11:11:44;;;;;;;4.90;3.03;;;;;;;;;;5034098;28;20021;-84
2022/04/10 11:14:28;;;;;;;5.53;3.47;;;;;;;;;;5040201;28;20036;-84
2022/04/10 11:16:54;;;;;;;6.22;3.53;;;;;;;;;;5054078;28;20021;-84
2022/04/10 11:19:23;;;;;;;6.05;3.33;;;;;;;;;;5050293;28;20041;-84
2022/04/10 11:21:52;;;;;;;4.82;3.13;;;;;;;;;;5034043;28;20060;-83
2022/04/10 11:24:24;;;;;;;6.28;3.50;;;;;;;;;;5047051;28;20039;-83
2022/04/10 11:26:50;;;;;;;7.15;3.33;;;;;;;;;;5053173;28;20026;-84
2022/04/10 11:29:20;;;;;;;6.60;3.33;;;;;;;;;;5040038;28;20135;-83
2022/04/10 11:31:51;;;;;;;5.47;3.33;;;;;;;;;;5042200;28;20018;-85
2022/04/10 11:34:20;;;;;;;6.00;3.80;;;;;;;;;;5043256;28;20049;-82
2022/04/10 11:36:54;;;;;;;7.00;4.22;;;;;;;;;;5057005;28;20111;-83
2022/04/10 11:39:24;;;;;;;7.07;4.25;;;;;;;;;;5043329;28;20499;-83
2022/04/10 11:41:50;;;;;;;6.88;4.35;;;;;;;;;;5038124;28;20480;-84
2022/04/10 11:44:17;;;;;;;7.75;4.90;;;;;;;;;;5044042;28;20018;-84
2022/04/10 11:46:48;;;;;;;7.80;5.20;;;;;;;;;;5032008;28;20120;-82
2022/04/10 11:49:17;;;;;;;8.10;5.35;;;;;;;;;;5050592;28;20032;-84
2022/04/10 11:51:50;;;;;;;8.52;5.38;;;;;;;;;;5053740;28;20391;-83
2022/04/10 11:54:33;;;;;;;8.65;5.20;;;;;;;;;;5036252;28;20479;-84
2022/04/10 11:57:00;;;;;;;6.97;4.75;;;;;;;;;;5038400;28;20036;-83
2022/04/10 11:59:33;;;;;;;6.75;3.90;;;;;;;;;;5044994;28;20025;-83
2022/04/10 12:01:59;;;;;;;7.45;4.00;;;;;;;;;;5038583;28;20061;-82
2022/04/10 12:04:25;;;;;;;7.10;4.05;;;;;;;;;;5049437;28;20025;-84
2022/04/10 12:06:51;;;;;;;7.32;4.03;;;;;;;;;;5036005;28;20107;-84
2022/04/10 12:09:17;;;;;;;8.00;4.95;;;;;;;;;;5036263;28;20068;-85
2022/04/10 12:11:44;;;;;;;7.25;4.22;;;;;;;;;;5039159;28;20028;-84
2022/04/10 12:14:24;;;;;;;5.55;3.67;;;;;;;;;;5042191;28;20445;-84
2022/04/10 12:16:52;;;;;;;6.47;4.25;;;;;;;;;;5035040;28;20021;-83
2022/04/10 12:19:29;;;;;;;5.65;3.63;;;;;;;;;;5039906;28;20021;-85
2022/04/10 12:21:55;;;;;;;5.80;3.70;;;;;;;;;;5052309;28;20032;-83
2022/04/10 12:24:21;;;;;;;5.20;3.17;;;;;;;;;;5042417;28;20041;-83
2022/04/10 12:26:48;;;;;;;6.03;3.92;;;;;;;;;;5037126;28;20022;-84
2022/04/10 12:29:14;;;;;;;7.57;4.40;;;;;;;;;;5043299;28;20088;-83
2022/04/10 12:31:41;;;;;;;6.50;3.75;;;;;;;;;;5038455;28;20049;-84
2022/04/10 12:34:10;;;;;;;5.40;3.50;;;;;;;;;;5046276;28;20022;-84
2022/04/10 12:36:44;;;;;;;6.45;3.75;;;;;;;;;;5039742;28;20022;-84
2022/04/10 12:39:10;;;;;;;5.63;3.42;;;;;;;;;;5048653;28;20033;-84
2022/04/10 12:41:36;;;;;;;7.18;3.83;;;;;;;;;;5042147;28;20053;-82
2022/04/10 12:44:03;;;;;;;5.88;3.45;;;;;;;;;;5055183;28;20064;-80
2022/04/10 12:46:39;;;;;;;4.85;2.92;;;;;;;;;;5055357;28;20017;-83
2022/04/10 12:49:12;;;;;;;5.93;3.45;;;;;;;;;;5061291;28;20049;-83
2022/04/10 12:51:53;;;;;;;3.85;2.10;;;;;;;;;;5056044;28;20014;-81
2022/04/10 12:54:20;;;;;;;4.78;2.15;;;;;;;;;;5053082;28;20029;-84
2022/04/10 12:56:52;;;;;;;5.57;2.70;;;;;;;;;;5047918;28;20430;-84
2022/04/10 12:59:19;;;;;;;4.15;2.22;;;;;;;;;;5045447;28;20064;-83
2022/04/10 13:01:51;;;;;;;5.13;2.60;;;;;;;;;;5037893;28;20030;-83
2022/04/10 13:07:20;;;;;;;5.30;3.20;;;;;;;;;;5034089;28;20040;-83
2022/04/10 13:09:50;;;;;;;6.15;3.17;;;;;;;;;;5037436;28;20033;-84
2022/04/10 13:12:25;;;;;;;5.93;2.72;;;;;;;;;;5038575;28;20041;-82
2022/04/10 13:14:52;;;;;;;5.60;2.95;;;;;;;;;;5038427;28;20025;-83
2022/04/10 13:17:18;;;;;;;4.95;2.78;;;;;;;;;;5057152;28;20087;-83
2022/04/10 13:19:44;;;;;;;6.15;2.67;;;;;;;;;;5046999;28;20102;-84
2022/04/10 13:22:10;;;;;;;5.30;2.75;;;;;;;;;;5046720;28;20048;-80
2022/04/10 13:24:36;;;;;;;5.18;2.83;;;;;;;;;;5066923;28;20052;-82
2022/04/10 13:27:04;;;;;;;4.97;2.58;;;;;;;;;;5073294;28;20028;-80
2022/04/10 13:29:30;;;;;;;4.95;2.63;;;;;;;;;;5075266;28;20029;-81
2022/04/10 13:31:56;;;;;;;4.85;2.60;;;;;;;;;;5066117;28;20040;-83
2022/04/10 13:34:22;;;;;;;4.63;2.65;;;;;;;;;;5041915;28;20028;-81
2022/04/10 13:36:48;;;;;;;4.68;2.55;;;;;;;;;;5052599;28;20031;-84
2022/04/10 13:39:14;;;;;;;5.07;2.55;;;;;;;;;;5032610;28;20133;-82
2022/04/10 13:41:43;;;;;;;4.95;2.50;;;;;;;;;;5042874;28;20035;-82
2022/04/10 13:44:11;;;;;;;4.53;2.53;;;;;;;;;;5046326;28;20026;-85
2022/04/10 13:46:37;;;;;;;4.93;2.40;;;;;;;;;;5041540;28;20065;-85
2022/04/10 13:49:03;;;;;;;5.32;2.50;;;;;;;;;;5036370;28;20056;-83
2022/04/10 13:51:29;;;;;;;5.65;2.67;;;;;;;;;;5033963;28;20021;-83
2022/04/10 13:53:55;;;;;;;4.32;2.33;;;;;;;;;;5043136;28;20025;-83
2022/04/10 13:56:21;;;;;;;5.90;2.50;;;;;;;;;;5046536;28;20025;-82
2022/04/10 13:58:47;;;;;;;4.18;2.05;;;;;;;;;;5051019;28;20510;-84
2022/04/10 14:01:13;;;;;;;4.85;2.05;;;;;;;;;;5056695;28;20051;-83
2022/04/10 14:03:39;;;;;;;4.65;2.30;;;;;;;;;;5048400;28;20032;-84
2022/04/10 14:06:05;;;;;;;5.25;2.75;;;;;;;;;;5048995;28;20025;-83
2022/04/10 14:08:31;;;;;;;4.10;2.22;;;;;;;;;;5034455;28;20049;-82
2022/04/10 14:10:58;;;;;;;4.78;1.98;;;;;;;;;;5032006;28;20048;-83
2022/04/10 14:13:24;;;;;;;4.28;2.20;;;;;;;;;;5042267;28;20087;-82
2022/04/10 14:15:50;;;;;;;4.75;1.83;;;;;;;;;;5044758;28;20415;-84
2022/04/10 14:18:18;;;;;;;3.42;1.60;;;;;;;;;;5056603;28;20048;-84
2022/04/10 14:20:44;;;;;;;3.20;1.35;;;;;;;;;;5040496;28;20022;-82
2022/04/10 14:23:10;;;;;;;3.08;1.17;;;;;;;;;;5036187;28;20025;-84
2022/04/10 14:25:36;;;;;;;3.53;1.40;;;;;;;;;;5037822;28;20040;-83
2022/04/10 14:28:02;;;;;;;6.38;1.98;;;;;;;;;;5039771;28;20025;-83
2022/04/10 14:30:28;;;;;;;5.43;1.73;;;;;;;;;;5035484;28;20036;-82
2022/04/10 14:32:54;;;;;;;4.55;1.70;;;;;;;;;;5044567;28;20034;-82
2022/04/10 14:35:20;;;;;;;3.63;1.75;;;;;;;;;;5053590;28;20021;-83
2022/04/10 14:37:47;;;;;;;3.25;1.50;;;;;;;;;;5049789;28;20033;-83
2022/04/10 14:40:13;;;;;;;4.22;1.95;;;;;;;;;;5053216;28;20029;-84
2022/04/10 14:42:38;;;;;;;2.63;1.38;;;;;;;;;;5026070;28;20032;-82
2022/04/10 14:45:05;;;;;;;3.67;1.50;;;;;;;;;;5030648;28;20033;-84
2022/04/10 14:47:31;;;;;;;7.03;1.80;;;;;;;;;;5041675;28;20036;-81
2022/04/10 14:49:57;;;;;;;3.70;1.60;;;;;;;;;;5016975;28;20061;-84
2022/04/10 14:52:23;;;;;;;4.45;1.60;;;;;;;;;;5021482;28;20029;-84
2022/04/10 14:54:49;;;;;;;2.58;1.30;;;;;;;;;;5042346;28;20030;-84
2022/04/10 14:57:15;;;;;;;3.92;1.50;;;;;;;;;;5041306;28;20080;-82